M I D A S
Marine Information and Data Acquisition System
Tripno 1706 of the Zeeleeuw from 2009-06-05 06:34:45 to 2009-06-05 17:00:00
Back to CruiseResearch ActivitiesStationsMapUnderway DataData graphs

EquipmentUnitsComment
TimeDGPSUTC
LatitudeDGPSDM.mWGS84
LongitudeDGPSDM.mWGS84
TemperatureSBE03/SBE38deg celciusITS90
ConductivitySBE21S/mITS90
SalinitySBE21 Practical Salinity Units
ChlorophylAChelsea fluorimeterg/lCalibrated in Aceton
Missing or incorrect values are displayed as -999
Sea surface data collected by the RV Zeeleeuw from 2009-06-05 05:51:51 to 2009-06-05 16:52:22
Time Latitude Longitude Temperature Conductivity Salinity ChlorophylA
2009-06-05 05:52:56 51°13.661 2°55.958 20.0729 0.028418 0.154556 -0.443383
2009-06-05 05:53:56 51°13.662 2°55.959 20.0667 0.028521 0.15512 -0.443383
2009-06-05 05:54:56 51°13.662 2°55.959 20.0781 0.02883 0.156808 -0.443383
2009-06-05 05:55:56 51°13.663 2°55.96 20.0794 0.02883 0.156813 -0.443383
2009-06-05 05:56:56 51°13.663 2°55.96 20.0869 0.02883 0.156813 -0.443383
2009-06-05 05:57:55 51°13.662 2°55.96 20.0903 0.028933 0.157378 -0.478207
2009-06-05 05:58:56 51°13.663 2°55.96 20.0895 0.029139 0.158505 -0.443383
2009-06-05 05:59:56 51°13.662 2°55.96 20.0851 0.029139 0.158505 -0.443383
2009-06-05 06:00:56 51°13.662 2°55.959 20.0995 0.029036 0.157943 -0.443383
2009-06-05 06:01:56 51°13.662 2°55.96 20.0889 0.029139 0.158505 -0.443383
2009-06-05 06:02:56 51°13.662 2°55.96 20.0932 0.029241 0.159067 -0.443383
2009-06-05 06:03:56 51°13.662 2°55.96 20.0912 0.029139 0.158508 -0.443383
2009-06-05 06:04:56 51°13.663 2°55.959 20.1013 0.029344 0.15963 -0.478207
2009-06-05 06:05:56 51°13.663 2°55.958 20.1024 0.02955 0.160755 -0.443383
2009-06-05 06:06:56 51°13.663 2°55.959 20.1084 0.029447 0.160192 -0.443383
2009-06-05 06:07:56 51°13.662 2°55.961 20.1028 0.029344 0.15963 -0.443383
2009-06-05 06:08:56 51°13.662 2°55.961 20.1199 0.02955 0.160755 -0.478207
2009-06-05 06:09:56 51°13.662 2°55.96 20.1248 0.029447 0.16019 -0.478207
2009-06-05 06:10:56 51°13.662 2°55.96 20.1225 0.029447 0.160192 -0.443383
2009-06-05 06:11:56 51°13.663 2°55.96 20.1308 0.02955 0.160755 -0.443383
2009-06-05 06:12:54 51°13.663 2°55.959 20.1258 0.029653 0.161315 -0.478207
2009-06-05 06:13:52 51°13.664 2°55.959 20.1318 0.029756 0.161881 -0.478207
2009-06-05 06:14:52 51°13.664 2°55.959 20.1345 0.029653 0.161318 -0.443383
2009-06-05 06:15:52 51°13.663 2°55.958 20.1499 0.029344 0.159632 -0.443383
2009-06-05 06:16:52 51°13.663 2°55.959 20.1876 0.02955 0.16076 -0.478207
2009-06-05 06:17:52 51°13.663 2°55.959 20.1711 0.029653 0.161329 -0.478207
2009-06-05 06:18:52 51°13.663 2°55.959 20.1577 0.02955 0.160763 -0.478207
2009-06-05 06:19:53 51°13.662 2°55.959 20.1844 0.02955 0.160766 -0.443383
2009-06-05 06:20:53 51°13.663 2°55.96 20.1648 0.02955 0.160766 -0.443383
2009-06-05 06:21:52 51°13.662 2°55.961 20.1702 0.029344 0.159635 -0.443383
2009-06-05 06:22:53 51°13.662 2°55.961 20.205 0.029756 0.161905 -0.478207
2009-06-05 06:23:52 51°13.662 2°55.96 20.1884 0.029859 0.162471 -0.478207
2009-06-05 06:24:53 51°13.662 2°55.96 20.2067 0.030065 0.163606 -0.443383
2009-06-05 06:25:53 51°13.661 2°55.96 20.2207 0.030168 0.16417 -0.443383
2009-06-05 06:26:52 51°13.661 2°55.959 20.2144 0.030065 0.163603 -0.443383
2009-06-05 06:27:55 51°13.67 2°55.93 20.2252 0.030065 0.163603 -0.443383
2009-06-05 06:28:56 51°13.688 2°55.849 20.2415 0.030065 0.163598 -0.443383
2009-06-05 06:29:56 51°13.71 2°55.776 20.2206 0.029653 0.161337 -0.478207
2009-06-05 06:30:55 51°13.732 2°55.731 20.2147 0.029962 0.163023 -0.443383
2009-06-05 06:31:56 51°13.785 2°55.68 20.2364 0.029859 0.162466 -0.443383
2009-06-05 06:32:56 51°13.845 2°55.635 20.2268 0.02955 0.16075 -0.443383
2009-06-05 06:33:56 51°13.9 2°55.628 20.2614 0.030373 0.165271 -0.478207
2009-06-05 06:34:55 51°13.932 2°55.639 20.2613 0.030579 0.166388 -0.443383
2009-06-05 06:35:53 51°13.934 2°55.637 20.2336 0.029756 0.161859 -0.478207
2009-06-05 06:36:52 51°13.938 2°55.628 20.1577 0.029344 0.159589 -0.478207
2009-06-05 06:37:52 51°13.969 2°55.575 20.274 0.030991 0.168629 -0.478207
2009-06-05 06:38:52 51°14.058 2°55.479 20.2748 0.030682 0.166903 -0.443383
2009-06-05 06:39:53 51°14.17 2°55.369 20.2569 0.030065 0.16349 -0.443383
2009-06-05 06:40:52 51°14.274 2°55.229 20.2094 0.028315 0.153862 -0.443383
2009-06-05 06:41:52 51°14.365 2°55.039 20.2401 0.026154 0.142028 -0.443383
2009-06-05 06:42:52 51°14.447 2°54.8 20.1443 0.026051 0.141498 -0.443383
2009-06-05 06:43:52 51°14.523 2°54.514 20.1504 0.025434 0.138224 -0.478207
2009-06-05 06:44:52 51°14.601 2°54.224 20.19 0.025434 0.138316 -0.443383
2009-06-05 06:45:52 51°14.674 2°53.934 20.2335 0.02883 0.157297 -0.443383
2009-06-05 06:46:52 51°14.738 2°53.636 17.6554 3.82562 27.998651 1.228171
2009-06-05 06:47:52 51°14.798 2°53.334 16.87 3.721145 27.951505 4.362336
2009-06-05 06:48:52 51°14.861 2°53.032 16.5753 3.858923 29.576708 5.755298
2009-06-05 06:49:52 51°14.925 2°52.732 16.4205 3.907451 30.182762 5.929418
2009-06-05 06:50:52 51°14.998 2°52.442 16.3274 3.937213 30.536297 5.755298
2009-06-05 06:51:52 51°15.086 2°52.162 16.2578 3.954428 30.749894 5.650826
2009-06-05 06:52:52 51°15.174 2°51.88 16.2192 3.963451 30.875149 5.058817
2009-06-05 06:53:52 51°15.255 2°51.592 16.1814 3.969362 30.954833 5.023993
2009-06-05 06:54:52 51°15.306 2°51.276 16.1708 3.959718 30.897554 4.710577
2009-06-05 06:55:52 51°15.348 2°50.958 16.1604 3.971437 31.018424 4.431984
2009-06-05 06:56:52 51°15.393 2°50.647 16.1572 3.987304 31.154599 3.770327
2009-06-05 06:57:52 51°15.44 2°50.336 16.1635 3.990519 31.185137 3.561383
2009-06-05 06:58:52 51°15.487 2°50.022 16.1603 3.993008 31.208723 3.456911
2009-06-05 06:59:52 51°15.537 2°49.71 16.1533 3.996742 31.246348 3.422087
2009-06-05 07:00:52 51°15.587 2°49.399 16.1621 3.99809 31.256815 3.352439
2009-06-05 07:01:52 51°15.635 2°49.092 16.1741 3.999127 31.262014 3.213142
2009-06-05 07:02:52 51°15.679 2°48.785 16.1772 3.999231 31.258444 3.143494
2009-06-05 07:03:52 51°15.685 2°48.464 16.1823 3.999023 31.252166 3.039022
2009-06-05 07:04:52 51°15.681 2°48.138 16.1853 3.999438 31.251946 2.969374
2009-06-05 07:05:52 51°15.708 2°47.817 16.1812 4.000786 31.262407 2.969374
2009-06-05 07:06:52 51°15.764 2°47.507 16.1542 4.003172 31.29149 2.864902
2009-06-05 07:07:51 51°15.824 2°47.203 16.1143 4.00535 31.332237 2.830078
2009-06-05 07:08:52 51°15.884 2°46.892 16.0693 4.008877 31.40024 2.76043
2009-06-05 07:09:51 51°15.944 2°46.593 16.0015 4.013026 31.479024 2.93455
2009-06-05 07:10:52 51°16.006 2°46.287 15.9543 4.013235 31.524832 3.039022
2009-06-05 07:11:51 51°16.074 2°46.001 15.9139 4.021636 31.63416 3.178318
2009-06-05 07:12:52 51°16.155 2°45.716 15.8743 4.02423 31.690164 3.28279
2009-06-05 07:13:52 51°16.243 2°45.446 15.8406 4.026719 31.742766 3.422087
2009-06-05 07:14:52 51°16.329 2°45.174 15.8271 4.029001 31.78643 3.561383
2009-06-05 07:15:52 51°16.412 2°44.901 15.8177 4.030246 31.800661 3.665855
2009-06-05 07:16:52 51°16.497 2°44.625 15.8043 4.032632 31.832166 3.631031
2009-06-05 07:17:52 51°16.581 2°44.347 15.782 4.039166 31.906819 3.526559
2009-06-05 07:18:52 51°16.667 2°44.067 15.7578 4.044975 31.973849 3.526559
2009-06-05 07:19:52 51°16.753 2°43.78 15.7268 4.051302 32.052834 3.491735
2009-06-05 07:20:52 51°16.839 2°43.493 15.6968 4.055659 32.113884 3.456911
2009-06-05 07:21:52 51°16.933 2°43.216 15.6715 4.057112 32.152031 3.422087
2009-06-05 07:22:51 51°17.028 2°42.946 15.6566 4.055764 32.157459 3.317614
2009-06-05 07:23:52 51°17.129 2°42.675 15.6564 4.052548 32.134365 3.247966
2009-06-05 07:24:52 51°17.232 2°42.41 15.6481 4.050785 32.124109 3.247966
2009-06-05 07:25:52 51°17.34 2°42.141 15.6294 4.050474 32.128696 3.213142
2009-06-05 07:26:52 51°17.449 2°41.877 15.5946 4.053067 32.17302 3.28279
2009-06-05 07:27:52 51°17.559 2°41.612 15.5697 4.060121 32.259613 3.247966
2009-06-05 07:28:51 51°17.666 2°41.354 15.5542 4.064374 32.311422 3.352439
2009-06-05 07:29:52 51°17.776 2°41.082 15.5455 4.06676 32.348068 3.28279
2009-06-05 07:30:52 51°17.888 2°40.819 15.5382 4.068212 32.368369 3.352439
2009-06-05 07:31:52 51°18.014 2°40.584 15.512 4.069354 32.391995 3.387263
2009-06-05 07:32:52 51°18.142 2°40.351 15.4689 4.072051 32.442998 3.352439
2009-06-05 07:33:52 51°18.273 2°40.124 15.4353 4.073711 32.486224 3.28279
2009-06-05 07:34:52 51°18.403 2°39.9 15.4047 4.076927 32.538624 3.10867
2009-06-05 07:35:52 51°18.536 2°39.676 15.3716 4.080143 32.593155 2.93455
2009-06-05 07:36:52 51°18.668 2°39.451 15.3439 4.0845 32.659329 2.899726
2009-06-05 07:37:52 51°18.8 2°39.225 15.326 4.088546 32.717359 2.795254
2009-06-05 07:38:52 51°18.929 2°38.993 15.3137 4.091969 32.760978 2.725606
2009-06-05 07:39:52 51°19.058 2°38.76 15.2979 4.095911 32.807208 2.586309
2009-06-05 07:40:52 51°19.19 2°38.527 15.2819 4.097882 32.835162 2.586309
2009-06-05 07:41:51 51°19.319 2°38.298 15.2642 4.098816 32.855926 2.551485
2009-06-05 07:42:52 51°19.452 2°38.059 15.2487 4.099543 32.881069 2.551485
2009-06-05 07:43:52 51°19.579 2°37.821 15.2034 4.099647 32.904129 2.551485
2009-06-05 07:44:52 51°19.701 2°37.577 15.1691 4.098299 32.922521 2.551485
2009-06-05 07:45:52 51°19.82 2°37.344 15.1457 4.096951 32.937481 2.447013
2009-06-05 07:46:52 51°19.931 2°37.216 15.121 4.099544 32.982998 2.377365
2009-06-05 07:47:52 51°20.015 2°37.117 15.0819 4.102657 33.032546 2.238069
2009-06-05 07:48:52 51°20.064 2°37.049 15.0512 4.109504 33.124854 2.063949
2009-06-05 07:49:52 51°20.101 2°36.979 15.072 4.11106 33.152168 1.9943
2009-06-05 07:50:52 51°20.103 2°36.909 15.062 4.109711 33.128822 2.029124
2009-06-05 07:51:52 51°20.083 2°36.89 15.0361 4.111786 33.157303 1.889828
2009-06-05 07:52:52 51°20.065 2°36.867 15.0102 4.115728 33.21386 1.785356
2009-06-05 07:53:52 51°20.066 2°36.786 14.9803 4.12019 33.279404 1.611236
2009-06-05 07:54:52 51°20.065 2°36.717 14.9839 4.122783 33.319024 1.506764
2009-06-05 07:55:52 51°20.064 2°36.66 14.9696 4.123509 33.326989 1.506764
2009-06-05 07:56:52 51°20.089 2°36.626 14.9555 4.124858 33.354711 1.402292
2009-06-05 07:57:52 51°20.103 2°36.658 14.9464 4.125481 33.368822 1.47194
2009-06-05 07:58:52 51°20.09 2°36.681 14.9573 4.123925 33.352647 1.506764
2009-06-05 07:59:52 51°20.076 2°36.69 14.9477 4.124651 33.357082 1.47194
2009-06-05 08:00:52 51°20.062 2°36.692 14.9471 4.123925 33.359015 1.402292
2009-06-05 08:01:52 51°20.047 2°36.69 14.9409 4.123302 33.354101 1.367467
2009-06-05 08:02:52 51°20.032 2°36.685 14.9349 4.123199 33.35741 1.332643
2009-06-05 08:03:52 51°20.015 2°36.678 14.9356 4.122888 33.358846 1.297819
2009-06-05 08:04:52 51°19.999 2°36.668 14.9313 4.122369 33.355576 1.228171
2009-06-05 08:05:52 51°19.984 2°36.662 14.9313 4.123614 33.368238 1.228171
2009-06-05 08:06:52 51°19.98 2°36.694 14.933 4.123718 33.367759 1.123699
2009-06-05 08:07:52 51°19.982 2°36.724 14.9349 4.123925 33.370342 1.123699
2009-06-05 08:08:52 51°19.976 2°36.737 14.931 4.124029 33.373404 1.158523
2009-06-05 08:09:52 51°19.965 2°36.741 14.938 4.124236 33.37457 1.193347
2009-06-05 08:10:52 51°19.952 2°36.741 14.9362 4.124859 33.375944 1.088875
2009-06-05 08:11:52 51°19.943 2°36.75 14.9318 4.124755 33.37784 1.088875
2009-06-05 08:12:52 51°19.934 2°36.754 14.9335 4.125274 33.378276 1.054051
2009-06-05 08:13:52 51°19.922 2°36.755 14.9321 4.125066 33.379235 1.088875
2009-06-05 08:14:52 51°19.909 2°36.752 14.9367 4.124859 33.376652 1.054051
2009-06-05 08:15:52 51°19.895 2°36.754 14.9405 4.125377 33.379214 1.019227
2009-06-05 08:16:52 51°19.895 2°36.793 14.9356 4.125377 33.377089 0.984403
2009-06-05 08:17:52 51°19.921 2°36.835 14.9363 4.125585 33.38038 1.019227
2009-06-05 08:18:52 51°19.941 2°36.853 14.9329 4.125585 33.381088 1.193347
2009-06-05 08:19:52 51°19.948 2°36.862 14.9358 4.124651 33.37407 1.158523
2009-06-05 08:20:52 51°19.949 2°36.868 14.9388 4.124859 33.373819 1.054051
2009-06-05 08:21:52 51°19.945 2°36.87 14.9366 4.124859 33.374528 1.088875
2009-06-05 08:22:52 51°19.938 2°36.872 14.9359 4.124755 33.375715 1.054051
2009-06-05 08:23:52 51°19.928 2°36.874 14.9353 4.124651 33.376194 1.019227
2009-06-05 08:24:52 51°19.916 2°36.873 14.9333 4.124651 33.374778 1.019227
2009-06-05 08:25:52 51°19.9 2°36.871 14.9312 4.124547 33.373132 0.949579
2009-06-05 08:26:52 51°19.886 2°36.864 14.9351 4.124236 33.373154 0.984403
2009-06-05 08:27:52 51°19.872 2°36.857 14.9315 4.124133 33.372925 0.984403
2009-06-05 08:28:52 51°19.859 2°36.85 14.9348 4.123925 33.371758 0.949579
2009-06-05 08:29:52 51°19.847 2°36.845 14.9314 4.123718 33.367759 0.984403
2009-06-05 08:30:52 51°19.836 2°36.839 14.9337 4.123406 33.366364 0.949579
2009-06-05 08:31:52 51°19.823 2°36.835 14.9313 4.12268 33.359095 0.984403
2009-06-05 08:32:52 51°19.811 2°36.833 14.9317 4.123821 33.370821 0.984403
2009-06-05 08:33:52 51°19.798 2°36.834 14.9333 4.123718 33.369884 1.019227
2009-06-05 08:34:52 51°19.786 2°36.836 14.9351 4.12268 33.359095 0.984403
2009-06-05 08:35:52 51°19.778 2°36.878 14.9363 4.119879 33.333792 0.984403
2009-06-05 08:36:52 51°19.829 2°36.905 14.937 4.11739 33.31201 1.123699
2009-06-05 08:37:52 51°19.902 2°36.902 14.9394 4.11158 33.254603 1.47194
2009-06-05 08:38:52 51°19.936 2°36.902 14.9392 4.107846 33.220181 1.506764
2009-06-05 08:39:52 51°19.953 2°36.905 14.94 4.112203 33.2574 1.47194
2009-06-05 08:40:52 51°19.96 2°36.909 14.937 4.112618 33.261852 1.402292
2009-06-05 08:41:52 51°19.961 2°36.912 14.9362 4.114174 33.277314 1.297819
2009-06-05 08:42:52 51°19.954 2°36.916 14.9389 4.115937 33.294652 1.297819
2009-06-05 08:43:52 51°19.943 2°36.92 14.9333 4.118219 33.315264 1.228171
2009-06-05 08:44:52 51°19.933 2°36.925 14.9316 4.120605 33.340352 1.158523
2009-06-05 08:45:52 51°19.923 2°36.931 14.9278 4.122058 33.354888 1.123699
2009-06-05 08:46:52 51°19.913 2°36.939 14.9296 4.123614 33.370363 1.088875
2009-06-05 08:47:52 51°19.9 2°36.947 14.9288 4.124651 33.379737 1.088875
2009-06-05 08:48:52 51°19.888 2°36.955 14.9265 4.125481 33.387236 1.088875
2009-06-05 08:49:52 51°19.878 2°36.964 14.9284 4.126311 33.394735 1.054051
2009-06-05 08:50:52 51°19.868 2°36.978 14.9325 4.127141 33.401526 0.984403
2009-06-05 08:51:52 51°19.859 2°36.99 14.9262 4.127763 33.407859 0.984403
2009-06-05 08:52:52 51°19.851 2°37.001 14.9271 4.127141 33.405071 1.054051
2009-06-05 08:53:52 51°19.843 2°37.012 14.9317 4.125274 33.387487 1.054051
2009-06-05 08:54:52 51°19.836 2°37.024 14.9325 4.123406 33.36778 1.019227
2009-06-05 08:55:51 51°19.831 2°37.035 14.9296 4.122784 33.361448 1.019227
2009-06-05 08:56:52 51°19.827 2°37.047 14.9305 4.120709 33.342704 1.019227
2009-06-05 08:57:52 51°19.822 2°37.055 14.9321 4.120087 33.336374 1.054051
2009-06-05 08:58:52 51°19.818 2°37.063 14.9337 4.117493 33.310826 1.054051
2009-06-05 08:59:52 51°19.813 2°37.07 14.9349 4.117078 33.304958 1.088875
2009-06-05 09:00:52 51°19.809 2°37.076 14.9402 4.114692 33.282704 1.088875
2009-06-05 09:01:52 51°19.806 2°37.083 14.9448 4.112306 33.258337 1.054051
2009-06-05 09:02:52 51°19.802 2°37.088 14.9457 4.111995 33.252705 1.054051
2009-06-05 09:03:52 51°19.799 2°37.092 14.9504 4.111269 33.244034 1.123699
2009-06-05 09:04:52 51°19.797 2°37.098 14.9492 4.110024 33.230682 1.123699
2009-06-05 09:05:52 51°19.795 2°37.104 14.9533 4.108883 33.21827 1.123699
2009-06-05 09:06:52 51°19.793 2°37.112 14.9561 4.107742 33.204451 1.088875
2009-06-05 09:07:52 51°19.792 2°37.118 14.9559 4.105874 33.187602 1.123699
2009-06-05 09:08:52 51°19.806 2°37.099 14.9581 4.10463 33.172854 1.123699
2009-06-05 09:09:52 51°19.864 2°37.071 14.9602 4.103281 33.158579 1.367467
2009-06-05 09:10:52 51°19.93 2°37.039 14.9603 4.103385 33.158109 1.437116
2009-06-05 09:11:52 51°19.964 2°37.027 14.9619 4.105252 33.177765 1.47194
2009-06-05 09:12:52 51°19.979 2°37.028 14.9597 4.104526 33.169808 1.402292
2009-06-05 09:13:52 51°19.986 2°37.035 14.9608 4.105563 33.180573 1.402292
2009-06-05 09:14:52 51°19.992 2°37.045 14.9549 4.106912 33.194147 1.402292
2009-06-05 09:15:52 51°19.994 2°37.056 14.9482 4.112306 33.249166 1.332643
2009-06-05 09:16:52 51°19.993 2°37.073 14.94 4.115626 33.284779 1.297819
2009-06-05 09:17:52 51°19.992 2°37.091 14.9341 4.118946 33.320408 1.228171
2009-06-05 09:18:52 51°19.992 2°37.108 14.9329 4.121124 33.340792 1.193347
2009-06-05 09:19:52 51°19.992 2°37.123 14.9279 4.123303 33.36401 1.158523
2009-06-05 09:20:52 51°19.993 2°37.138 14.9249 4.124548 33.378799 1.123699
2009-06-05 09:21:52 51°19.994 2°37.151 14.926 4.125689 33.391237 1.158523
2009-06-05 09:22:52 51°19.995 2°37.163 14.9247 4.126519 33.401573 1.088875
2009-06-05 09:23:52 51°19.996 2°37.175 14.9236 4.127245 33.406008 1.019227
2009-06-05 09:24:52 51°19.996 2°37.187 14.9246 4.127867 33.410924 1.054051
2009-06-05 09:25:52 51°19.997 2°37.199 14.9219 4.127764 33.413533 1.019227
2009-06-05 09:26:52 51°19.999 2°37.21 14.9236 4.127245 33.409554 0.984403
2009-06-05 09:27:52 51°20 2°37.223 14.92 4.127452 33.405756 0.984403
2009-06-05 09:28:52 51°20.002 2°37.237 14.9208 4.127037 33.40697 0.984403
2009-06-05 09:29:52 51°20.004 2°37.253 14.9229 4.12683 33.404385 0.984403
2009-06-05 09:30:52 51°20.007 2°37.269 14.9182 4.126519 33.4037 1.019227
2009-06-05 09:31:52 51°20.009 2°37.288 14.9199 4.126311 33.402534 0.984403
2009-06-05 09:32:52 51°20.012 2°37.306 14.918 4.126208 33.401596 0.984403
2009-06-05 09:33:52 51°20.013 2°37.325 14.9158 4.126104 33.401368 0.984403
2009-06-05 09:34:52 51°20.015 2°37.346 14.917 4.126 33.40043 1.088875
2009-06-05 09:35:52 51°20.017 2°37.368 14.9174 4.126 33.399721 1.054051
2009-06-05 09:36:52 51°20.019 2°37.391 14.9176 4.126104 33.401368 1.019227
2009-06-05 09:37:52 51°20.022 2°37.413 14.9169 4.124755 33.387052 1.019227
2009-06-05 09:38:51 51°20.025 2°37.434 14.9223 4.125585 33.39597 1.019227
2009-06-05 09:39:52 51°20.029 2°37.456 14.9199 4.125585 33.394552 1.019227
2009-06-05 09:40:52 51°20.034 2°37.478 14.9203 4.12517 33.387967 1.019227
2009-06-05 09:41:52 51°20.038 2°37.499 14.9266 4.124029 33.379072 1.088875
2009-06-05 09:42:52 51°20.041 2°37.521 14.9244 4.122784 33.367822 1.123699
2009-06-05 09:43:52 51°20.045 2°37.541 14.925 4.121228 33.351637 1.088875
2009-06-05 09:44:52 51°20.05 2°37.56 14.9308 4.119879 33.335207 1.123699
2009-06-05 09:45:52 51°20.054 2°37.579 14.9349 4.118842 33.325836 1.088875
2009-06-05 09:46:52 51°20.057 2°37.598 14.941 4.117701 33.310579 1.123699
2009-06-05 09:47:52 51°20.059 2°37.582 14.9508 4.116352 33.294161 1.123699
2009-06-05 09:48:52 51°20.086 2°37.507 15.1578 4.0983 32.978777 2.412189
2009-06-05 09:49:52 51°20.164 2°37.377 15.0048 4.128176 33.247958 2.133597
2009-06-05 09:50:52 51°20.273 2°37.2 14.9618 4.135647 33.401856 2.133597
2009-06-05 09:51:52 51°20.387 2°37.009 14.9313 4.134195 33.431933 2.133597
2009-06-05 09:52:52 51°20.503 2°36.817 14.9026 4.130357 33.422076 2.133597
2009-06-05 09:53:52 51°20.616 2°36.623 14.8655 4.125378 33.39835 2.098773
2009-06-05 09:54:52 51°20.73 2°36.435 14.8462 4.131914 33.491576 1.889828
2009-06-05 09:55:52 51°20.843 2°36.249 14.8463 4.139072 33.562084 1.680884
2009-06-05 09:56:52 51°20.956 2°36.063 14.8339 4.146023 33.62432 1.611236
2009-06-05 09:57:52 51°21.071 2°35.875 14.8208 4.1426 33.605462 1.64606
2009-06-05 09:58:52 51°21.188 2°35.69 14.8071 4.140836 33.597347 1.715708
2009-06-05 09:59:52 51°21.31 2°35.497 14.807 4.141147 33.606604 1.680884
2009-06-05 10:00:52 51°21.442 2°35.279 14.8137 4.139384 33.595626 1.715708
2009-06-05 10:01:52 51°21.578 2°35.056 14.8156 4.141459 33.606563 1.785356
2009-06-05 10:02:52 51°21.714 2°34.84 14.7942 4.148928 33.683587 1.367467
2009-06-05 10:03:52 51°21.847 2°34.623 14.6743 4.165217 33.845748 1.123699
2009-06-05 10:04:52 51°21.975 2°34.398 14.5506 4.162625 33.962616 1.123699
2009-06-05 10:05:52 51°22.102 2°34.17 14.5394 4.157439 33.9779 1.158523
2009-06-05 10:06:52 51°22.225 2°33.941 14.5343 4.154223 33.954364 1.228171
2009-06-05 10:07:52 51°22.351 2°33.716 14.538 4.153704 33.954728 1.228171
2009-06-05 10:08:52 51°22.481 2°33.493 14.524 4.153808 33.961506 1.193347
2009-06-05 10:09:52 51°22.608 2°33.26 14.5488 4.150592 33.927763 1.228171
2009-06-05 10:10:52 51°22.725 2°33.02 14.513 4.154119 33.961433 1.088875
2009-06-05 10:11:52 51°22.839 2°32.784 14.5358 4.159722 34.02502 0.984403
2009-06-05 10:12:52 51°22.954 2°32.552 14.5525 4.163249 34.038985 0.949579
2009-06-05 10:13:52 51°23.068 2°32.321 14.5559 4.165012 34.041948 0.914755
2009-06-05 10:14:52 51°23.183 2°32.091 14.5459 4.164909 34.045382 0.914755
2009-06-05 10:15:52 51°23.299 2°31.861 14.5455 4.165116 34.055314 0.914755
2009-06-05 10:16:53 51°23.414 2°31.627 14.5588 4.164598 34.047653 0.879931
2009-06-05 10:17:52 51°23.525 2°31.403 14.5477 4.165116 34.043626 0.879931
2009-06-05 10:18:52 51°23.673 2°31.213 14.5577 4.165531 34.052529 0.845107
2009-06-05 10:19:52 51°23.844 2°31.059 14.5569 4.165531 34.046685 0.810283
2009-06-05 10:20:52 51°24.018 2°30.916 14.5419 4.16605 34.053614 0.775459
2009-06-05 10:21:51 51°24.19 2°30.773 14.5223 4.166673 34.072456 0.775459
2009-06-05 10:22:52 51°24.363 2°30.625 14.5103 4.167607 34.099284 0.775459
2009-06-05 10:23:52 51°24.537 2°30.474 14.506 4.166984 34.10458 0.810283
2009-06-05 10:24:52 51°24.708 2°30.326 14.5093 4.167503 34.123986 0.810283
2009-06-05 10:25:52 51°24.783 2°30.243 14.4648 4.170097 34.156528 0.845107
2009-06-05 10:26:52 51°24.775 2°30.201 14.4519 4.170928 34.186913 0.879931
2009-06-05 10:27:52 51°24.748 2°30.166 14.4312 4.171135 34.210162 0.845107
2009-06-05 10:28:52 51°24.714 2°30.155 14.4306 4.171239 34.226592 0.845107
2009-06-05 10:29:52 51°24.684 2°30.141 14.4225 4.171862 34.233774 0.845107
2009-06-05 10:30:52 51°24.67 2°30.163 14.4211 4.171966 34.23989 0.845107
2009-06-05 10:31:52 51°24.661 2°30.193 14.4176 4.172277 34.244221 0.845107
2009-06-05 10:32:52 51°24.66 2°30.227 14.416 4.172588 34.248552 0.845107
2009-06-05 10:33:52 51°24.664 2°30.261 14.4129 4.1729 34.255836 0.810283
2009-06-05 10:34:52 51°24.673 2°30.294 14.4127 4.173211 34.260907 0.810283
2009-06-05 10:35:52 51°24.685 2°30.322 14.417 4.173522 34.261547 0.775459
2009-06-05 10:36:52 51°24.698 2°30.349 14.415 4.173937 34.266093 0.775459
2009-06-05 10:37:52 51°24.685 2°30.37 14.4095 4.174041 34.270738 0.740634
2009-06-05 10:38:52 51°24.673 2°30.297 14.4093 4.174352 34.275072 0.775459
2009-06-05 10:39:52 51°24.656 2°30.186 14.409 4.174248 34.274859 0.775459
2009-06-05 10:40:52 51°24.678 2°30.13 14.4078 4.173937 34.272742 0.775459
2009-06-05 10:41:52 51°24.698 2°30.147 14.4142 4.174352 34.274333 0.775459
2009-06-05 10:42:52 51°24.709 2°30.18 14.4168 4.174871 34.27392 0.810283
2009-06-05 10:43:52 51°24.719 2°30.216 14.425 4.174871 34.270965 0.775459
2009-06-05 10:44:52 51°24.73 2°30.253 14.4309 4.174559 34.264418 0.775459
2009-06-05 10:45:52 51°24.74 2°30.291 14.4311 4.175182 34.266435 0.775459
2009-06-05 10:46:52 51°24.752 2°30.302 14.4351 4.176116 34.269092 0.775459
2009-06-05 10:47:52 51°24.738 2°30.282 14.4438 4.176219 34.267828 0.740634
2009-06-05 10:48:52 51°24.711 2°30.222 14.4451 4.176738 34.26668 0.740634
2009-06-05 10:49:52 51°24.678 2°30.183 14.4508 4.176842 34.263941 0.70581
2009-06-05 10:50:52 51°24.663 2°30.173 14.4579 4.177153 34.263105 0.70581
2009-06-05 10:51:52 51°24.658 2°30.18 14.4647 4.177672 34.261958 0.70581
2009-06-05 10:52:52 51°24.657 2°30.194 14.46 4.178086 34.260599 0.70581
2009-06-05 10:53:52 51°24.66 2°30.216 14.4639 4.178086 34.259861 0.70581
2009-06-05 10:54:52 51°24.665 2°30.24 14.4683 4.178605 34.259453 0.70581
2009-06-05 10:55:52 51°24.662 2°30.259 14.4704 4.178916 34.258618 0.70581
2009-06-05 10:56:52 51°24.596 2°30.26 14.4782 4.17902 34.257358 0.70581
2009-06-05 10:57:52 51°24.501 2°30.179 14.5051 4.179227 34.245996 0.670986
2009-06-05 10:58:52 51°24.39 2°30.079 14.5139 4.181717 34.232726 0.670986
2009-06-05 10:59:53 51°24.258 2°29.972 14.502 4.181198 34.228716 0.636162
2009-06-05 11:00:52 51°24.13 2°29.868 14.4916 4.179849 34.228141 0.636162
2009-06-05 11:01:53 51°24.024 2°29.788 14.5041 4.180576 34.232581 0.636162
2009-06-05 11:02:52 51°23.971 2°29.763 14.5039 4.179746 34.227927 0.636162
2009-06-05 11:03:51 51°23.935 2°29.755 14.5034 4.179746 34.225721 0.636162
2009-06-05 11:04:52 51°23.911 2°29.755 14.5097 4.179434 34.222873 0.636162
2009-06-05 11:05:52 51°23.892 2°29.757 14.5114 4.180264 34.220174 0.670986
2009-06-05 11:06:52 51°23.874 2°29.765 14.5126 4.180679 34.221765 0.636162
2009-06-05 11:07:52 51°23.858 2°29.771 14.5215 4.180576 34.220081 0.670986
2009-06-05 11:08:52 51°23.844 2°29.779 14.5046 4.180264 34.217969 0.70581
2009-06-05 11:09:52 51°23.836 2°29.791 14.5088 4.179642 34.213744 0.670986
2009-06-05 11:10:52 51°23.828 2°29.803 14.5112 4.179746 34.216163 0.670986
2009-06-05 11:11:51 51°23.822 2°29.814 14.5197 4.180264 34.212825 0.70581
2009-06-05 11:12:52 51°23.818 2°29.817 14.5005 4.180161 34.214815 0.70581
2009-06-05 11:13:52 51°23.812 2°29.805 14.5025 4.179019 34.216134 0.740634
2009-06-05 11:14:52 51°23.794 2°29.801 14.4986 4.179331 34.217512 0.775459
2009-06-05 11:15:52 51°23.776 2°29.798 14.511 4.179434 34.215521 0.775459
2009-06-05 11:16:52 51°23.771 2°29.8 14.4984 4.179746 34.216163 0.740634
2009-06-05 11:17:52 51°23.771 2°29.808 14.4971 4.178501 34.215799 0.740634
2009-06-05 11:18:52 51°23.773 2°29.821 14.5186 4.179123 34.216348 0.740634
2009-06-05 11:19:51 51°23.781 2°29.837 14.5219 4.180575 34.215671 0.775459
2009-06-05 11:20:52 51°23.791 2°29.857 14.5312 4.180679 34.215151 0.775459
2009-06-05 11:21:52 51°23.802 2°29.879 14.5338 4.181717 34.214354 0.775459
2009-06-05 11:22:52 51°23.815 2°29.903 14.5267 4.182028 34.216465 0.775459
2009-06-05 11:23:52 51°23.828 2°29.929 14.5249 4.181302 34.217905 0.775459
2009-06-05 11:24:51 51°23.843 2°29.957 14.5254 4.181094 34.216007 0.810283
2009-06-05 11:25:52 51°23.858 2°29.97 14.5286 4.181094 34.216007 0.775459
2009-06-05 11:26:52 51°23.869 2°29.96 14.5173 4.181094 34.216742 0.845107
2009-06-05 11:27:52 51°23.875 2°29.936 14.5118 4.180264 34.218704 0.775459
2009-06-05 11:28:51 51°23.876 2°29.9 14.5295 4.180472 34.219867 0.810283
2009-06-05 11:29:52 51°23.859 2°29.865 14.5207 4.18182 34.217506 0.775459
2009-06-05 11:30:51 51°23.837 2°29.83 14.5193 4.181302 34.220844 0.810283
2009-06-05 11:31:52 51°23.82 2°29.781 14.5363 4.181613 34.220017 0.775459
2009-06-05 11:32:51 51°23.794 2°29.748 14.5406 4.183273 34.223442 0.775459
2009-06-05 11:33:52 51°23.754 2°29.749 14.5521 4.184206 34.223899 0.775459
2009-06-05 11:34:53 51°23.721 2°29.767 14.5554 4.184829 34.225917 0.810283
2009-06-05 11:35:52 51°23.706 2°29.795 14.5587 4.184518 34.218667 0.775459
2009-06-05 11:36:52 51°23.698 2°29.827 14.5625 4.184518 34.216466 0.775459
2009-06-05 11:37:52 51°23.697 2°29.865 14.5702 4.184621 34.213011 0.810283
2009-06-05 11:38:52 51°23.703 2°29.904 14.5735 4.184206 34.207751 0.810283
2009-06-05 11:39:51 51°23.713 2°29.942 14.575 4.182754 34.190815 0.879931
2009-06-05 11:40:52 51°23.707 2°29.983 14.5743 4.182442 34.187239 0.879931
2009-06-05 11:41:52 51°23.691 2°29.952 14.5759 4.182131 34.183662 0.949579
2009-06-05 11:42:52 51°23.701 2°29.907 14.5791 4.181508 34.172847 0.879931
2009-06-05 11:43:52 51°23.702 2°29.873 14.5817 4.183065 34.191459 0.879931
2009-06-05 11:44:52 51°23.706 2°29.842 14.5859 4.183999 34.195589 0.879931
2009-06-05 11:45:52 51°23.712 2°29.814 14.5685 4.185036 34.199933 0.879931
2009-06-05 11:46:52 51°23.722 2°29.786 14.564 4.185866 34.223653 0.810283
2009-06-05 11:47:52 51°23.74 2°29.77 14.5577 4.185866 34.228057 0.810283
2009-06-05 11:48:52 51°23.757 2°29.779 14.5591 4.185763 34.23078 0.845107
2009-06-05 11:49:52 51°23.772 2°29.798 14.5572 4.185763 34.231514 0.810283
2009-06-05 11:50:52 51°23.784 2°29.823 14.5587 4.185763 34.232249 0.845107
2009-06-05 11:51:52 51°23.794 2°29.853 14.5564 4.185659 34.2313 0.879931
2009-06-05 11:52:52 51°23.803 2°29.887 14.556 4.185555 34.231821 0.845107
2009-06-05 11:53:52 51°23.81 2°29.924 14.5542 4.185451 34.232341 0.845107
2009-06-05 11:54:52 51°23.818 2°29.938 14.5552 4.185451 34.232341 0.879931
2009-06-05 11:55:52 51°23.799 2°29.936 14.5537 4.185451 34.233076 0.879931
2009-06-05 11:56:52 51°23.76 2°29.93 14.5586 4.185763 34.235921 0.845107
2009-06-05 11:57:52 51°23.717 2°29.919 14.5597 4.185866 34.233931 0.845107
2009-06-05 11:58:52 51°23.716 2°29.876 14.5619 4.186074 34.231422 0.879931
2009-06-05 11:59:52 51°23.724 2°29.849 14.5606 4.186281 34.235521 0.845107
2009-06-05 12:00:52 51°23.717 2°29.826 14.5609 4.187008 34.24069 0.845107
2009-06-05 12:01:52 51°23.722 2°29.781 14.5733 4.187111 34.240169 0.845107
2009-06-05 12:02:53 51°23.746 2°29.776 14.5771 4.1868 34.229248 0.845107
2009-06-05 12:03:52 51°23.771 2°29.792 14.6116 4.18514 34.197949 0.845107
2009-06-05 12:04:51 51°23.794 2°29.818 14.6344 4.183064 34.154115 0.879931
2009-06-05 12:05:52 51°23.815 2°29.847 14.6341 4.183168 34.139711 0.879931
2009-06-05 12:06:52 51°23.85 2°29.861 14.6646 4.184102 34.152612 0.879931
2009-06-05 12:07:52 51°23.87 2°29.832 14.6528 4.184309 34.145004 0.914755
2009-06-05 12:08:52 51°23.838 2°29.825 14.6917 4.179432 34.066283 0.984403
2009-06-05 12:09:52 51°23.785 2°29.798 14.7841 4.180677 34.059426 0.914755
2009-06-05 12:10:52 51°23.752 2°29.78 14.7193 4.18493 34.085049 0.949579
2009-06-05 12:11:52 51°23.745 2°29.777 14.7367 4.180469 34.052445 0.949579
2009-06-05 12:12:52 51°23.748 2°29.785 14.733 4.180573 34.046846 0.949579
2009-06-05 12:13:52 51°23.758 2°29.798 14.7411 4.18078 34.044373 0.949579
2009-06-05 12:14:51 51°23.775 2°29.815 14.7538 4.179639 34.024547 0.914755
2009-06-05 12:15:52 51°23.795 2°29.839 14.7441 4.178083 34.011117 0.914755
2009-06-05 12:16:52 51°23.816 2°29.867 14.7476 4.177253 34.007197 0.914755
2009-06-05 12:17:52 51°23.836 2°29.898 14.747 4.176838 34.002696 0.845107
2009-06-05 12:18:52 51°23.855 2°29.932 14.7541 4.17663 33.99718 0.845107
2009-06-05 12:19:52 51°23.872 2°29.97 14.7598 4.17663 33.990652 0.810283
2009-06-05 12:20:52 51°23.893 2°29.996 14.7669 4.176007 33.982092 0.845107
2009-06-05 12:21:53 51°23.919 2°30.009 14.7605 4.175904 33.981149 0.810283
2009-06-05 12:22:53 51°23.947 2°30.008 14.7575 4.175592 33.981943 0.775459
2009-06-05 12:23:53 51°23.942 2°29.981 14.7609 4.175177 33.97527 0.810283
2009-06-05 12:24:53 51°23.871 2°30.029 14.7617 4.176111 33.988836 0.775459
2009-06-05 12:25:53 51°23.747 2°30.123 14.7696 4.176215 33.980354 0.810283
2009-06-05 12:26:52 51°23.598 2°30.264 14.7738 4.179639 34.008581 0.845107
2009-06-05 12:27:53 51°23.441 2°30.42 14.7665 4.183685 34.034483 0.914755
2009-06-05 12:28:52 51°23.286 2°30.573 14.7612 4.181506 34.027012 0.949579
2009-06-05 12:29:53 51°23.127 2°30.732 14.7652 4.180572 34.019247 0.949579
2009-06-05 12:30:52 51°22.965 2°30.842 14.7835 4.180469 34.013225 0.984403
2009-06-05 12:31:53 51°22.79 2°30.896 14.7947 4.180053 34.003651 0.984403
2009-06-05 12:32:52 51°22.621 2°30.941 14.7787 4.179846 34.000315 1.019227
2009-06-05 12:33:53 51°22.449 2°30.926 14.7664 4.178808 33.989436 1.019227
2009-06-05 12:34:52 51°22.292 2°30.858 14.7606 4.179224 34.002632 0.984403
2009-06-05 12:35:53 51°22.126 2°30.793 14.7526 4.17995 34.015764 0.984403
2009-06-05 12:36:52 51°21.959 2°30.74 14.7389 4.179846 34.032244 0.949579
2009-06-05 12:37:53 51°21.785 2°30.692 14.74 4.17995 34.035368 0.984403
2009-06-05 12:38:52 51°21.62 2°30.64 14.7539 4.18078 34.037834 0.949579
2009-06-05 12:39:53 51°21.446 2°30.582 14.7746 4.181299 34.032385 0.914755
2009-06-05 12:40:52 51°21.278 2°30.554 14.7991 4.182336 34.025125 0.914755
2009-06-05 12:41:53 51°21.11 2°30.574 14.8324 4.184307 34.015486 0.914755
2009-06-05 12:42:53 51°21.033 2°30.612 14.848 4.186174 34.010716 0.914755
2009-06-05 12:43:53 51°21.016 2°30.665 14.8604 4.187523 34.007759 0.879931
2009-06-05 12:44:53 51°21.017 2°30.713 14.8713 4.188353 34.008056 0.845107
2009-06-05 12:45:53 51°21.024 2°30.753 14.876 4.189286 34.008572 0.845107
2009-06-05 12:46:52 51°21.033 2°30.781 14.881 4.189805 34.008215 0.810283
2009-06-05 12:47:53 51°21.044 2°30.803 14.8873 4.190116 34.007423 0.810283
2009-06-05 12:48:52 51°21.054 2°30.822 14.891 4.190427 34.006632 0.775459
2009-06-05 12:49:53 51°21.064 2°30.843 14.8967 4.190739 34.005117 0.775459
2009-06-05 12:50:52 51°21.072 2°30.863 14.8965 4.191154 34.003822 0.740634
2009-06-05 12:51:53 51°21.081 2°30.885 14.9044 4.191361 34.004258 0.70581
2009-06-05 12:52:53 51°21.089 2°30.909 14.9104 4.191776 34.002963 0.70581
2009-06-05 12:53:53 51°21.097 2°30.936 14.9075 4.191672 34.002745 0.70581
2009-06-05 12:54:53 51°21.105 2°30.966 14.908 4.191983 34.002677 0.70581
2009-06-05 12:55:53 51°21.112 2°30.994 14.9131 4.192191 34.001669 0.670986
2009-06-05 12:56:53 51°21.12 2°31.023 14.9135 4.192398 34.002105 0.670986
2009-06-05 12:57:53 51°21.126 2°31.054 14.9162 4.192502 34.001601 0.670986
2009-06-05 12:58:53 51°21.13 2°31.085 14.9156 4.19271 34.001315 0.636162
2009-06-05 12:59:53 51°21.132 2°31.11 14.9192 4.192813 34.000089 0.636162
2009-06-05 13:00:53 51°21.135 2°31.136 14.9214 4.192917 33.998863 0.636162
2009-06-05 13:01:53 51°21.138 2°31.161 14.9231 4.192813 33.997923 0.636162
2009-06-05 13:02:53 51°21.142 2°31.187 14.9227 4.192813 33.995758 0.636162
2009-06-05 13:03:53 51°21.145 2°31.211 14.9223 4.192709 33.995539 0.636162
2009-06-05 13:04:53 51°21.15 2°31.237 14.9279 4.192606 33.993156 0.636162
2009-06-05 13:05:53 51°21.154 2°31.265 14.9236 4.192502 33.992216 0.636162
2009-06-05 13:06:53 51°21.158 2°31.29 14.9257 4.192606 33.990991 0.636162
2009-06-05 13:07:53 51°21.161 2°31.314 14.9309 4.192398 33.989111 0.636162
2009-06-05 13:08:53 51°21.164 2°31.338 14.9232 4.192398 33.989111 0.636162
2009-06-05 13:09:53 51°21.167 2°31.362 14.928 4.192087 33.987013 0.636162
2009-06-05 13:10:53 51°21.171 2°31.388 14.9245 4.192398 33.986946 0.636162
2009-06-05 13:11:53 51°21.177 2°31.416 14.9294 4.192191 33.986509 0.636162
2009-06-05 13:12:53 51°21.183 2°31.442 14.9333 4.192502 33.987165 0.601338
2009-06-05 13:13:53 51°21.19 2°31.469 14.9306 4.192502 33.987886 0.636162
2009-06-05 13:14:53 51°21.177 2°31.527 14.9313 4.192606 33.987383 0.636162
2009-06-05 13:15:53 51°21.131 2°31.701 14.9333 4.192709 33.990488 0.670986
2009-06-05 13:16:53 51°21.086 2°31.947 14.9324 4.193332 33.991798 0.670986
2009-06-05 13:17:53 51°21.036 2°32.243 14.9545 4.193124 33.984868 0.740634
2009-06-05 13:18:52 51°20.985 2°32.544 14.9781 4.193228 33.973552 0.775459
2009-06-05 13:19:53 51°20.933 2°32.856 15.0072 4.194265 33.954856 0.810283
2009-06-05 13:20:53 51°20.88 2°33.161 15.032 4.194161 33.925161 0.845107
2009-06-05 13:21:53 51°20.831 2°33.467 15.0644 4.193642 33.901094 0.845107
2009-06-05 13:22:53 51°20.785 2°33.776 15.0782 4.19416 33.881409 0.845107
2009-06-05 13:23:53 51°20.741 2°34.09 15.0903 4.193019 33.861802 0.879931
2009-06-05 13:24:53 51°20.697 2°34.405 15.1344 4.190321 33.819595 0.984403
2009-06-05 13:25:53 51°20.641 2°34.714 15.183 4.184821 33.728705 1.123699
2009-06-05 13:26:53 51°20.581 2°35.021 15.2087 4.180255 33.650707 1.193347
2009-06-05 13:27:53 51°20.514 2°35.32 15.1755 4.175794 33.607052 1.193347
2009-06-05 13:28:53 51°20.439 2°35.616 15.1487 4.169154 33.572108 1.228171
2009-06-05 13:29:53 51°20.366 2°35.91 15.1477 4.163137 33.536366 1.262995
2009-06-05 13:30:53 51°20.299 2°36.208 15.1551 4.160129 33.511417 1.262995
2009-06-05 13:31:53 51°20.237 2°36.51 15.1524 4.158261 33.489673 1.297819
2009-06-05 13:32:53 51°20.205 2°36.745 15.1502 4.157431 33.480796 1.332643
2009-06-05 13:33:53 51°20.197 2°36.879 15.1525 4.15712 33.477291 1.332643
2009-06-05 13:34:53 51°20.207 2°36.946 15.156 4.157016 33.475652 1.297819
2009-06-05 13:35:53 51°20.214 2°36.959 15.1604 4.156912 33.474013 1.332643
2009-06-05 13:36:53 51°20.22 2°36.967 15.1589 4.15712 33.473057 1.367467
2009-06-05 13:37:53 51°20.225 2°36.974 15.1616 4.156912 33.471191 1.332643
2009-06-05 13:38:53 51°20.231 2°36.98 15.1662 4.156912 33.470485 1.332643
2009-06-05 13:39:53 51°20.222 2°37.034 15.1786 4.156705 33.47003 1.332643
2009-06-05 13:40:53 51°20.165 2°36.989 15.1615 4.158987 33.472212 1.47194
2009-06-05 13:41:53 51°20.101 2°36.85 15.1687 4.156082 33.465843 1.506764
2009-06-05 13:42:53 51°20.058 2°36.769 15.1665 4.156601 33.464159 1.506764
2009-06-05 13:43:53 51°20.023 2°36.739 15.1597 4.156601 33.464159 1.506764
2009-06-05 13:44:53 51°20 2°36.732 15.1695 4.156497 33.462521 1.506764
2009-06-05 13:45:53 51°19.983 2°36.735 15.1677 4.156912 33.463431 1.47194
2009-06-05 13:46:52 51°19.971 2°36.739 15.1738 4.156912 33.463431 1.437116
2009-06-05 13:47:53 51°19.962 2°36.748 15.174 4.15712 33.463181 1.437116
2009-06-05 13:48:53 51°19.956 2°36.758 15.1707 4.15712 33.463886 1.402292
2009-06-05 13:49:53 51°19.947 2°36.772 15.1748 4.157223 33.463409 1.332643
2009-06-05 13:50:53 51°19.939 2°36.838 15.1745 4.157431 33.464569 1.367467
2009-06-05 13:51:53 51°19.986 2°36.924 15.1711 4.157327 33.464341 1.332643
2009-06-05 13:52:53 51°20.019 2°36.954 15.1718 4.157846 33.465479 1.402292
2009-06-05 13:53:53 51°20.045 2°36.971 15.1721 4.157742 33.465957 1.332643
2009-06-05 13:54:53 51°20.062 2°36.981 15.1728 4.157431 33.465979 1.367467
2009-06-05 13:55:53 51°20.067 2°36.986 15.1723 4.157223 33.465524 1.332643
2009-06-05 13:56:53 51°20.066 2°36.987 15.1618 4.157535 33.465502 1.262995
2009-06-05 13:57:54 51°20.054 2°36.971 15.1696 4.157535 33.465502 1.332643
2009-06-05 13:58:57 51°20.02 2°36.909 15.1624 4.157223 33.46623 1.367467
2009-06-05 13:59:55 51°20.001 2°36.853 15.1697 4.156601 33.464865 1.47194
2009-06-05 14:00:54 51°19.995 2°36.812 15.1676 4.157223 33.46623 1.506764
2009-06-05 14:01:53 51°19.999 2°36.783 15.1729 4.15712 33.466002 1.47194
2009-06-05 14:02:53 51°20.006 2°36.766 15.1649 4.157327 33.465752 1.47194
2009-06-05 14:03:53 51°20.013 2°36.754 15.1747 4.157223 33.46623 1.402292
2009-06-05 14:04:53 51°20.019 2°36.75 15.1811 4.157431 33.46739 1.367467
2009-06-05 14:05:53 51°20.025 2°36.747 15.173 4.157638 33.467139 1.332643
2009-06-05 14:06:53 51°20.031 2°36.745 15.1735 4.157742 33.467367 1.228171
2009-06-05 14:07:53 51°20.037 2°36.745 15.1744 4.15795 33.467822 1.228171
2009-06-05 14:08:53 51°20.041 2°36.744 15.1701 4.158157 33.469687 1.193347
2009-06-05 14:09:53 51°20.045 2°36.745 15.1755 4.158468 33.468254 1.158523
2009-06-05 14:10:53 51°20.049 2°36.747 15.1741 4.158157 33.468277 1.123699
2009-06-05 14:11:53 51°20.051 2°36.749 15.1766 4.158468 33.469664 1.088875
2009-06-05 14:12:53 51°20.055 2°36.752 15.1801 4.158676 33.470119 1.088875
2009-06-05 14:13:53 51°20.058 2°36.754 15.1848 4.158883 33.469164 1.054051
2009-06-05 14:14:53 51°20.062 2°36.756 15.1828 4.159194 33.469141 1.054051
2009-06-05 14:15:53 51°20.065 2°36.757 15.1919 4.158779 33.468936 1.019227
2009-06-05 14:16:53 51°20.068 2°36.758 15.1831 4.159091 33.468914 1.019227
2009-06-05 14:17:53 51°20.071 2°36.758 15.188 4.159506 33.469823 1.019227
2009-06-05 14:18:53 51°20.073 2°36.758 15.1874 4.159713 33.469573 1.019227
2009-06-05 14:19:53 51°20.076 2°36.758 15.188 4.15992 33.469323 0.984403
2009-06-05 14:20:53 51°20.078 2°36.756 15.1897 4.159713 33.469573 0.949579
2009-06-05 14:21:53 51°20.081 2°36.755 15.1894 4.159817 33.471211 0.949579
2009-06-05 14:22:53 51°20.083 2°36.753 15.1878 4.159609 33.470756 0.949579
2009-06-05 14:23:53 51°20.085 2°36.75 15.1843 4.159817 33.470506 0.949579
2009-06-05 14:24:53 51°20.088 2°36.747 15.1864 4.159402 33.471006 0.949579
2009-06-05 14:25:53 51°20.09 2°36.744 15.187 4.159402 33.471006 0.949579
2009-06-05 14:26:53 51°20.092 2°36.74 15.1869 4.159402 33.471006 0.914755
2009-06-05 14:27:53 51°20.094 2°36.735 15.1873 4.159298 33.470779 0.949579
2009-06-05 14:28:53 51°20.097 2°36.731 15.1811 4.159298 33.471484 0.914755
2009-06-05 14:29:52 51°20.099 2°36.729 15.1815 4.159091 33.471029 0.914755
2009-06-05 14:30:53 51°20.101 2°36.724 15.1865 4.159091 33.471734 0.914755
2009-06-05 14:31:53 51°20.103 2°36.721 15.1892 4.159091 33.470324 0.984403
2009-06-05 14:32:53 51°20.104 2°36.717 15.1864 4.159298 33.470779 0.949579
2009-06-05 14:33:53 51°20.106 2°36.713 15.1903 4.159713 33.471688 0.984403
2009-06-05 14:34:53 51°20.107 2°36.708 15.1949 4.159817 33.471916 0.984403
2009-06-05 14:35:53 51°20.109 2°36.704 15.1931 4.160128 33.471893 0.949579
2009-06-05 14:36:53 51°20.11 2°36.699 15.1998 4.160543 33.472098 0.949579
2009-06-05 14:37:53 51°20.111 2°36.693 15.2015 4.160958 33.472302 0.949579
2009-06-05 14:38:53 51°20.113 2°36.688 15.2054 4.161062 33.47253 0.949579
2009-06-05 14:39:53 51°20.113 2°36.682 15.2004 4.161269 33.472984 0.984403
2009-06-05 14:40:53 51°20.114 2°36.675 15.2127 4.161477 33.473439 0.949579
2009-06-05 14:41:53 51°20.115 2°36.667 15.207 4.161684 33.473894 0.984403
2009-06-05 14:42:53 51°20.116 2°36.66 15.2059 4.161788 33.473417 0.949579
2009-06-05 14:43:53 51°20.116 2°36.651 15.2029 4.161891 33.473644 0.949579
2009-06-05 14:44:53 51°20.117 2°36.642 15.2041 4.161477 33.474144 0.949579
2009-06-05 14:45:53 51°20.117 2°36.632 15.2011 4.161892 33.474349 0.914755
2009-06-05 14:46:53 51°20.118 2°36.623 15.2069 4.161788 33.473417 0.949579
2009-06-05 14:47:53 51°20.118 2°36.614 15.2003 4.161477 33.474849 0.949579
2009-06-05 14:48:53 51°20.117 2°36.605 15.2041 4.161684 33.473894 0.949579
2009-06-05 14:49:53 51°20.117 2°36.597 15.2033 4.161477 33.474144 0.949579
2009-06-05 14:50:53 51°20.115 2°36.589 15.2022 4.16158 33.474371 0.949579
2009-06-05 14:51:53 51°20.114 2°36.581 15.2015 4.161684 33.473894 0.949579
2009-06-05 14:52:53 51°20.113 2°36.573 15.2001 4.161477 33.474144 0.914755
2009-06-05 14:53:53 51°20.112 2°36.564 15.2007 4.161788 33.474826 0.949579
2009-06-05 14:54:53 51°20.111 2°36.554 15.2112 4.161373 33.475326 0.949579
2009-06-05 14:55:53 51°20.109 2°36.544 15.2091 4.161788 33.476235 0.984403
2009-06-05 14:56:53 51°20.107 2°36.534 15.2009 4.161684 33.475303 0.949579
2009-06-05 14:57:53 51°20.106 2°36.524 15.2009 4.161788 33.475531 0.984403
2009-06-05 14:58:53 51°20.104 2°36.513 15.2041 4.161477 33.475553 0.984403
2009-06-05 14:59:53 51°20.103 2°36.5 15.2056 4.161477 33.476258 0.984403
2009-06-05 15:00:53 51°20.102 2°36.488 15.2025 4.161995 33.475985 0.984403
2009-06-05 15:01:53 51°20.102 2°36.476 15.1971 4.161477 33.476258 0.984403
2009-06-05 15:02:53 51°20.101 2°36.462 15.2 4.16158 33.47719 0.914755
2009-06-05 15:03:53 51°20.099 2°36.446 15.2035 4.161373 33.477441 0.914755
2009-06-05 15:04:53 51°20.097 2°36.429 15.198 4.16158 33.477895 0.949579
2009-06-05 15:05:53 51°20.096 2°36.414 15.1978 4.16158 33.477895 0.984403
2009-06-05 15:06:53 51°20.091 2°36.401 15.1964 4.161269 33.478623 0.949579
2009-06-05 15:07:53 51°20.078 2°36.406 15.1964 4.161165 33.478396 0.984403
2009-06-05 15:08:53 51°20.071 2°36.429 15.1931 4.161373 33.47885 0.984403
2009-06-05 15:09:53 51°20.073 2°36.473 15.1922 4.161165 33.478396 1.054051
2009-06-05 15:10:53 51°20.085 2°36.58 15.1992 4.160958 33.478646 1.054051
2009-06-05 15:11:53 51°20.098 2°36.658 15.1916 4.161373 33.48026 1.193347
2009-06-05 15:12:53 51°20.112 2°36.693 15.2042 4.161165 33.479101 1.193347
2009-06-05 15:13:53 51°20.124 2°36.706 15.199 4.161373 33.47885 1.228171
2009-06-05 15:14:53 51°20.135 2°36.711 15.1952 4.161062 33.476759 1.228171
2009-06-05 15:15:53 51°20.145 2°36.711 15.1951 4.160958 33.475826 1.228171
2009-06-05 15:16:53 51°20.154 2°36.709 15.2021 4.160854 33.474894 1.158523
2009-06-05 15:17:53 51°20.16 2°36.705 15.1966 4.160647 33.474439 1.193347
2009-06-05 15:18:53 51°20.164 2°36.7 15.1995 4.160543 33.472802 1.123699
2009-06-05 15:19:53 51°20.166 2°36.692 15.1957 4.160543 33.472098 1.088875
2009-06-05 15:20:53 51°20.168 2°36.684 15.1931 4.160335 33.471643 1.054051
2009-06-05 15:21:53 51°20.168 2°36.674 15.1945 4.160335 33.470233 1.054051
2009-06-05 15:22:53 51°20.166 2°36.663 15.2072 4.160543 33.469279 1.019227
2009-06-05 15:23:53 51°20.163 2°36.651 15.203 4.160335 33.469528 1.019227
2009-06-05 15:24:53 51°20.16 2°36.636 15.1983 4.160543 33.469279 1.019227
2009-06-05 15:25:53 51°20.157 2°36.621 15.1983 4.160232 33.467892 0.949579
2009-06-05 15:26:53 51°20.155 2°36.604 15.1992 4.160439 33.467642 0.949579
2009-06-05 15:27:53 51°20.152 2°36.587 15.1997 4.160128 33.467664 0.914755
2009-06-05 15:28:53 51°20.148 2°36.583 15.1989 4.160128 33.466959 0.949579
2009-06-05 15:29:53 51°20.112 2°36.691 15.1973 4.160232 33.467892 0.984403
2009-06-05 15:30:53 51°20.032 2°36.917 15.3296 4.160024 33.458278 1.611236
2009-06-05 15:31:53 51°19.929 2°37.157 15.5141 4.168529 33.380186 2.272893
2009-06-05 15:32:53 51°19.807 2°37.376 15.4464 4.170707 33.32921 2.516661
2009-06-05 15:33:53 51°19.684 2°37.589 15.4341 4.161058 33.250751 2.621133
2009-06-05 15:34:53 51°19.56 2°37.808 15.4395 4.156701 33.230613 2.655957
2009-06-05 15:35:53 51°19.436 2°38.028 15.4298 4.154937 33.210704 2.899726
2009-06-05 15:36:53 51°19.314 2°38.25 15.4403 4.152759 33.191953 2.864902
2009-06-05 15:37:53 51°19.204 2°38.488 15.4463 4.151202 33.171825 2.969374
2009-06-05 15:38:53 51°19.097 2°38.731 15.484 4.152032 33.159832 3.317614
2009-06-05 15:39:53 51°18.99 2°38.977 15.4739 4.145081 33.079209 3.317614
2009-06-05 15:40:53 51°18.891 2°39.228 15.4437 4.137819 33.031055 3.178318
2009-06-05 15:41:53 51°18.787 2°39.473 15.4446 4.130039 32.978249 3.317614
2009-06-05 15:42:53 51°18.679 2°39.714 15.4432 4.126304 32.940833 3.28279
2009-06-05 15:43:53 51°18.57 2°39.959 15.4488 4.124333 32.92602 3.387263
2009-06-05 15:44:53 51°18.464 2°40.203 15.4355 4.125681 32.932536 3.28279
2009-06-05 15:45:53 51°18.359 2°40.434 15.4456 4.125681 32.929785 3.178318
2009-06-05 15:46:53 51°18.258 2°40.67 15.4785 4.121532 32.899687 3.213142
2009-06-05 15:47:53 51°18.152 2°40.899 15.5285 4.119353 32.828863 3.596207
2009-06-05 15:48:52 51°18.053 2°41.132 15.5025 4.116448 32.785942 4.153392
2009-06-05 15:49:53 51°17.946 2°41.373 15.532 4.109601 32.740095 4.327512
2009-06-05 15:50:53 51°17.835 2°41.609 15.564 4.110016 32.726732 4.431984
2009-06-05 15:51:53 51°17.726 2°41.844 15.5658 4.099538 32.600376 4.292688
2009-06-05 15:52:52 51°17.622 2°42.075 15.537 4.093418 32.550139 4.292688
2009-06-05 15:53:52 51°17.512 2°42.311 15.5241 4.089165 32.538814 4.640929
2009-06-05 15:54:52 51°17.4 2°42.545 15.5216 4.087195 32.530124 4.640929
2009-06-05 15:55:53 51°17.291 2°42.781 15.5421 4.088232 32.535946 4.606104
2009-06-05 15:56:52 51°17.192 2°42.999 15.5423 4.089476 32.534123 4.57128
2009-06-05 15:57:52 51°17.089 2°43.226 15.5412 4.08792 32.514897 4.501632
2009-06-05 15:58:52 51°16.979 2°43.457 15.5557 4.087505 32.507831 4.536456
2009-06-05 15:59:53 51°16.874 2°43.702 15.5557 4.088439 32.503938 4.606104
2009-06-05 16:00:53 51°16.791 2°43.963 15.5632 4.087298 32.503285 4.780225
2009-06-05 16:01:53 51°16.712 2°44.232 15.6915 4.093003 32.513312 5.198113
2009-06-05 16:02:52 51°16.629 2°44.495 15.753 4.096424 32.451284 5.51153
2009-06-05 16:03:52 51°16.549 2°44.761 15.7661 4.095283 32.40496 5.441882
2009-06-05 16:04:53 51°16.485 2°45.036 15.7555 4.09466 32.400135 5.68565
2009-06-05 16:05:52 51°16.41 2°45.298 15.7941 4.093934 32.389035 5.581178
2009-06-05 16:06:52 51°16.337 2°45.564 15.8097 4.095593 32.371553 5.33741
2009-06-05 16:07:53 51°16.259 2°45.828 15.7224 4.100988 32.435206 5.093641
2009-06-05 16:08:53 51°16.191 2°46.095 15.6825 4.092171 32.417054 5.093641
2009-06-05 16:09:52 51°16.123 2°46.353 15.757 4.083873 32.3578 4.849873
2009-06-05 16:10:53 51°16.046 2°46.616 15.7803 4.079412 32.268232 4.536456
2009-06-05 16:11:52 51°15.97 2°46.871 15.8824 4.075262 32.216299 4.431984
2009-06-05 16:12:52 51°15.895 2°47.131 16.0099 4.06188 31.977417 4.22304
2009-06-05 16:13:53 51°15.819 2°47.396 16.0385 4.04715 31.778194 4.153392
2009-06-05 16:14:52 51°15.742 2°47.651 16.0175 4.034599 31.666403 4.04892
2009-06-05 16:15:52 51°15.68 2°47.917 16.027 4.032422 31.660991 4.083744
2009-06-05 16:16:52 51°15.631 2°48.187 16.0643 4.031384 31.643468 3.909623
2009-06-05 16:17:53 51°15.586 2°48.461 16.1017 4.031799 31.609472 3.631031
2009-06-05 16:18:52 51°15.526 2°48.719 16.1217 4.026197 31.542431 3.456911
2009-06-05 16:19:52 51°15.464 2°48.98 16.1326 4.021011 31.4791 3.456911
2009-06-05 16:20:54 51°15.401 2°49.25 16.2823 4.017277 31.431086 3.352439
2009-06-05 16:21:53 51°15.337 2°49.509 16.3156 4.02132 31.335016 3.073846
2009-06-05 16:22:52 51°15.282 2°49.769 16.3499 4.012504 31.252748 3.039022
2009-06-05 16:23:52 51°15.228 2°50.037 16.3911 4.011674 31.206183 2.830078
2009-06-05 16:24:52 51°15.178 2°50.307 16.3835 4.014058 31.184416 2.76043
2009-06-05 16:25:53 51°15.134 2°50.583 16.3616 4.006903 31.163568 2.864902
2009-06-05 16:26:52 51°15.09 2°50.85 16.3409 4.000992 31.124991 2.830078
2009-06-05 16:27:52 51°15.038 2°51.12 16.3961 4.000058 31.102362 2.830078
2009-06-05 16:28:53 51°14.98 2°51.391 16.337 3.993835 31.024516 3.143494
2009-06-05 16:29:54 51°14.923 2°51.661 16.5373 1.533476 10.867449 1.297819
2009-06-05 16:30:52 51°14.876 2°51.92 16.6619 1.55793 11.053839 0.462042
2009-06-05 16:31:54 51°14.825 2°52.193 16.7887 0.34493 2.194289 0.462042
2009-06-05 16:32:53 51°14.777 2°52.452 16.9099 0.341017 2.167473 0.462042
2009-06-05 16:33:52 51°14.727 2°52.712 17.0186 0.231174 1.436522 0.427218
2009-06-05 16:34:52 51°14.681 2°52.981 17.1183 0.264321 1.654312 0.427218
2009-06-05 16:35:53 51°14.646 2°53.257 17.2038 0.220263 1.364455 0.427218
2009-06-05 16:36:53 51°14.605 2°53.527 17.2795 0.277188 1.738023 0.427218
2009-06-05 16:37:53 51°14.57 2°53.805 17.374 0.323824 2.047814 0.427218
2009-06-05 16:38:54 51°14.529 2°54.084 17.4682 0.396821 2.539051 0.462042
2009-06-05 16:39:52 51°14.489 2°54.35 17.5433 0.361609 2.298647 0.462042
2009-06-05 16:40:52 51°14.453 2°54.624 17.6617 0.451498 2.90845 0.427218
2009-06-05 16:41:52 51°14.396 2°54.89 17.9577 1.310852 8.770963 0.427218
2009-06-05 16:42:53 51°14.313 2°55.153 17.8546 0.142036 0.838823 0.462042
2009-06-05 16:43:52 51°14.215 2°55.32 17.6058 0.072669 0.417401 0.462042
2009-06-05 16:44:57 51°14.097 2°55.432 17.9453 0.066906 0.38318 0.496866
2009-06-05 16:45:57 51°13.97 2°55.525 18.0443 0.074419 0.427845 0.462042
2009-06-05 16:46:57 51°13.84 2°55.621 18.0891 0.075448 0.43401 0.462042
2009-06-05 16:47:57 51°13.744 2°55.729 18.1592 0.074316 0.427321 0.427218
2009-06-05 16:48:57 51°13.692 2°55.829 18.211 0.072669 0.41748 0.427218
2009-06-05 16:49:57 51°13.666 2°55.92 18.3053 0.070714 0.405887 0.427218
2009-06-05 16:50:57 51°13.66 2°55.957 18.4182 0.069273 0.397274 0.427218
2009-06-05 16:51:57 51°13.661 2°55.96 18.4837 0.067935 0.389326 0.427218